createdAt,value
2019-03-25T00:01:28.261Z,89.50
2019-03-25T00:03:57.162Z,89.40
2019-03-25T00:06:26.045Z,89.10
2019-03-25T00:09:04.806Z,89.30
2019-03-25T00:11:28.564Z,89.50
2019-03-25T00:13:57.682Z,89.00
2019-03-25T00:16:26.625Z,88.90
2019-03-25T00:18:55.566Z,89.90
2019-03-25T00:21:24.444Z,89.40
2019-03-25T00:23:53.280Z,89.70
2019-03-25T00:26:24.777Z,89.70
2019-03-25T00:28:54.732Z,89.10
2019-03-25T00:31:23.621Z,89.00
2019-03-25T00:33:52.495Z,88.70
2019-03-25T00:36:22.875Z,88.80
2019-03-25T00:38:51.763Z,88.30
2019-03-25T00:41:22.171Z,88.10
2019-03-25T00:43:52.485Z,88.70
2019-03-25T00:46:21.367Z,88.40
2019-03-25T00:48:50.289Z,88.80
2019-03-25T00:51:22.244Z,88.90
2019-03-25T00:53:52.652Z,89.20
2019-03-25T00:56:23.081Z,88.60
2019-03-25T00:58:51.974Z,88.80
2019-03-25T01:01:22.331Z,89.30
2019-03-25T01:03:55.919Z,87.90
2019-03-25T01:06:26.278Z,87.70
2019-03-25T01:08:55.154Z,88.00
2019-03-25T01:11:24.135Z,88.90
2019-03-25T01:13:53.028Z,90.00
2019-03-25T01:16:21.984Z,90.40
2019-03-25T01:18:50.946Z,90.90
2019-03-25T01:21:19.941Z,91.60
2019-03-25T01:23:51.342Z,91.70
2019-03-25T01:26:20.286Z,91.90
2019-03-25T01:28:49.165Z,91.90
2019-03-25T01:31:18.057Z,92.20
2019-03-25T01:33:46.991Z,91.60
2019-03-25T01:36:15.895Z,91.40
2019-03-25T01:38:46.794Z,91.60
2019-03-25T01:41:15.734Z,91.30
2019-03-25T01:43:44.644Z,91.70
2019-03-25T01:46:13.509Z,91.60
2019-03-25T01:48:46.626Z,91.90
2019-03-25T01:51:12.974Z,91.90
2019-03-25T01:53:41.870Z,92.10
2019-03-25T01:56:10.847Z,91.90
2019-03-25T01:58:39.741Z,91.90
2019-03-25T02:01:08.600Z,91.50
2019-03-25T02:03:42.030Z,91.10
2019-03-25T02:06:10.927Z,91.20
2019-03-25T02:08:39.846Z,90.90
2019-03-25T02:11:08.691Z,90.70
2019-03-25T02:13:44.738Z,90.70
2019-03-25T02:16:14.671Z,90.80
2019-03-25T02:18:44.999Z,90.60
2019-03-25T02:21:13.918Z,90.60
2019-03-25T02:23:42.785Z,90.60
2019-03-25T02:26:13.229Z,90.40
2019-03-25T02:28:42.150Z,90.60
2019-03-25T02:31:11.031Z,90.40
2019-03-25T02:33:45.630Z,90.30
2019-03-25T02:36:14.568Z,90.40
2019-03-25T02:38:43.529Z,90.40
2019-03-25T02:41:12.437Z,90.30
2019-03-25T02:43:48.738Z,90.30
2019-03-25T02:46:17.586Z,90.40
2019-03-25T02:48:46.472Z,90.20
2019-03-25T02:51:15.439Z,90.40
2019-03-25T02:53:44.335Z,90.40
2019-03-25T02:56:15.889Z,90.40
2019-03-25T02:58:44.820Z,90.40
2019-03-25T03:01:20.758Z,90.30
2019-03-25T03:03:50.866Z,90.40
2019-03-25T03:06:19.811Z,90.50
2019-03-25T03:08:51.709Z,90.60
2019-03-25T03:11:28.045Z,90.50
2019-03-25T03:13:56.981Z,90.80
2019-03-25T03:16:27.339Z,90.80
2019-03-25T03:18:57.678Z,90.80
2019-03-25T03:21:26.621Z,90.60
2019-03-25T03:23:55.553Z,90.60
2019-03-25T03:26:25.957Z,90.80
2019-03-25T03:28:54.839Z,90.80
2019-03-25T03:31:25.402Z,90.90
2019-03-25T03:33:58.609Z,90.80
2019-03-25T03:36:29.270Z,90.80
2019-03-25T03:39:01.173Z,90.70
2019-03-25T03:41:31.593Z,90.70
2019-03-25T03:44:00.936Z,90.50
2019-03-25T03:46:31.356Z,90.40
2019-03-25T03:49:00.281Z,90.30
2019-03-25T03:51:29.297Z,90.30
2019-03-25T03:53:59.618Z,90.30
2019-03-25T03:56:32.006Z,89.90
2019-03-25T03:59:04.117Z,89.60
2019-03-25T04:01:36.176Z,89.10
2019-03-25T04:04:05.071Z,89.80
2019-03-25T04:06:33.961Z,88.90
2019-03-25T04:09:02.898Z,88.20
2019-03-25T04:11:49.193Z,87.90
2019-03-25T04:14:19.614Z,88.30
2019-03-25T04:16:48.510Z,88.60
2019-03-25T04:19:20.338Z,88.70
2019-03-25T04:21:49.286Z,88.70
2019-03-25T04:24:18.201Z,88.20
2019-03-25T04:26:47.081Z,88.30
2019-03-25T04:29:15.978Z,88.60
2019-03-25T04:31:44.874Z,88.90
2019-03-25T04:34:13.780Z,89.40
2019-03-25T04:36:42.681Z,89.50
2019-03-25T04:39:17.294Z,89.50
2019-03-25T04:41:47.674Z,90.00
2019-03-25T04:44:16.569Z,89.10
2019-03-25T04:46:46.951Z,88.90
2019-03-25T04:49:15.876Z,89.00
2019-03-25T04:51:45.098Z,89.50
2019-03-25T04:54:14.043Z,89.00
2019-03-25T04:56:42.955Z,89.00
2019-03-25T04:59:14.166Z,88.80
2019-03-25T05:01:43.049Z,88.50
2019-03-25T05:04:14.371Z,88.80
2019-03-25T05:06:43.305Z,88.70
2019-03-25T05:09:12.172Z,89.10
2019-03-25T05:11:43.878Z,89.30
2019-03-25T05:14:12.751Z,89.20
2019-03-25T05:16:41.641Z,89.10
2019-03-25T05:19:11.934Z,89.00
2019-03-25T05:21:41.663Z,88.80
2019-03-25T05:24:10.552Z,89.10
2019-03-25T05:26:50.337Z,89.30
2019-03-25T05:29:10.025Z,89.60
2019-03-25T05:31:40.770Z,90.10
2019-03-25T05:34:11.130Z,90.20
2019-03-25T05:36:41.604Z,90.30
2019-03-25T05:39:10.452Z,90.50
2019-03-25T05:41:39.369Z,90.30
2019-03-25T05:44:11.097Z,90.50
2019-03-25T05:46:42.165Z,90.50
2019-03-25T05:49:11.124Z,90.60
2019-03-25T05:51:42.843Z,90.40
2019-03-25T05:54:11.824Z,90.30
2019-03-25T05:56:40.717Z,90.50
2019-03-25T05:59:14.043Z,90.50
2019-03-25T06:01:44.794Z,90.60
2019-03-25T06:04:13.662Z,90.30
2019-03-25T06:06:42.561Z,90.50
2019-03-25T06:09:11.386Z,90.20
2019-03-25T06:11:40.639Z,90.40
2019-03-25T06:14:09.523Z,90.40
2019-03-25T06:16:38.403Z,90.20
2019-03-25T06:19:09.105Z,90.20
2019-03-25T06:21:39.454Z,90.00
2019-03-25T06:24:11.913Z,90.10
2019-03-25T06:26:42.264Z,89.60
2019-03-25T06:29:12.657Z,90.10
2019-03-25T06:31:41.550Z,90.10
2019-03-25T06:34:12.667Z,90.00
2019-03-25T06:36:41.534Z,89.80
2019-03-25T06:39:11.997Z,89.20
2019-03-25T06:41:40.918Z,88.50
2019-03-25T06:44:09.816Z,89.40
2019-03-25T06:46:38.672Z,88.90
2019-03-25T06:49:07.585Z,88.70
2019-03-25T06:51:36.472Z,89.20
2019-03-25T06:54:07.517Z,89.40
2019-03-25T06:56:36.431Z,89.80
2019-03-25T06:59:05.322Z,89.50
2019-03-25T07:01:34.176Z,89.30
2019-03-25T07:04:05.012Z,88.90
2019-03-25T07:06:35.207Z,88.60
2019-03-25T07:09:07.098Z,88.70
2019-03-25T07:11:36.272Z,88.80
2019-03-25T07:14:05.398Z,89.10
2019-03-25T07:16:34.784Z,88.50
2019-03-25T07:19:03.769Z,89.00
2019-03-25T07:21:33.349Z,87.90
2019-03-25T07:24:02.424Z,88.40
2019-03-25T07:26:32.743Z,88.40
2019-03-25T07:29:01.742Z,88.80
2019-03-25T07:31:32.170Z,88.80
2019-03-25T07:34:01.145Z,89.10
2019-03-25T07:36:33.117Z,88.80
2019-03-25T07:39:04.361Z,89.50
2019-03-25T07:41:33.425Z,88.40
2019-03-25T07:44:02.386Z,88.70
2019-03-25T07:46:31.251Z,88.40
2019-03-25T07:49:00.731Z,87.40
2019-03-25T07:51:29.613Z,88.30
2019-03-25T07:53:59.070Z,87.80
2019-03-25T07:56:27.958Z,87.60
2019-03-25T07:58:56.873Z,87.60
2019-03-25T08:01:25.824Z,86.70
2019-03-25T08:03:54.981Z,86.50
2019-03-25T08:06:23.841Z,87.00
2019-03-25T08:09:03.120Z,86.00
2019-03-25T08:11:25.546Z,86.20
2019-03-25T08:13:54.462Z,85.70
2019-03-25T08:16:24.905Z,85.90
2019-03-25T08:18:53.830Z,86.10
2019-03-25T08:21:28.749Z,86.00
2019-03-25T08:23:57.684Z,86.20
2019-03-25T08:26:26.564Z,85.50
2019-03-25T08:28:58.971Z,85.00
2019-03-25T08:31:28.534Z,84.80
2019-03-25T08:33:57.433Z,82.90
2019-03-25T08:36:26.350Z,83.80
2019-03-25T08:38:56.868Z,86.10
2019-03-25T08:41:25.795Z,82.00
2019-03-25T08:43:54.789Z,82.80
2019-03-25T08:46:23.737Z,83.30
2019-03-25T08:48:52.610Z,82.60
2019-03-25T08:51:24.857Z,82.00
2019-03-25T08:53:53.531Z,82.50
2019-03-25T08:56:24.855Z,80.00
2019-03-25T08:58:54.123Z,80.20
2019-03-25T09:01:24.600Z,80.00
2019-03-25T09:03:53.553Z,78.70
2019-03-25T09:06:22.465Z,80.00
2019-03-25T09:08:57.239Z,79.90
2019-03-25T09:11:27.742Z,77.70
2019-03-25T09:13:56.618Z,78.70
2019-03-25T09:16:25.533Z,76.10
2019-03-25T09:18:57.148Z,78.50
2019-03-25T09:21:26.086Z,78.40
2019-03-25T09:23:54.964Z,77.80
2019-03-25T09:26:23.868Z,77.00
2019-03-25T09:28:56.587Z,77.80
2019-03-25T09:31:36.425Z,74.70
2019-03-25T09:34:01.365Z,76.50
2019-03-25T09:36:30.253Z,75.40
2019-03-25T09:38:59.123Z,73.00
2019-03-25T09:41:28.151Z,73.70
2019-03-25T09:43:57.093Z,71.50
2019-03-25T09:46:25.986Z,71.80
2019-03-25T09:48:56.457Z,71.30
2019-03-25T09:51:25.482Z,70.50
2019-03-25T09:53:54.358Z,71.90
2019-03-25T09:56:23.295Z,70.40
2019-03-25T09:58:55.352Z,69.00
2019-03-25T10:01:24.220Z,68.80
2019-03-25T10:03:53.144Z,69.20
2019-03-25T10:06:22.081Z,69.00
2019-03-25T10:08:51.018Z,68.10
2019-03-25T10:11:21.394Z,67.30
2019-03-25T10:13:50.298Z,67.70
2019-03-25T10:16:19.243Z,68.60
2019-03-25T10:18:49.578Z,65.60
2019-03-25T10:21:18.412Z,68.20
2019-03-25T10:23:50.115Z,68.50
2019-03-25T10:26:19.089Z,68.10
2019-03-25T10:28:49.245Z,66.30
2019-03-25T10:31:18.440Z,66.80
2019-03-25T10:33:47.385Z,66.40
2019-03-25T10:36:16.269Z,65.10
2019-03-25T10:38:45.245Z,66.80
2019-03-25T10:41:14.147Z,65.50
2019-03-25T10:43:44.111Z,67.30
2019-03-25T10:46:13.075Z,65.20
2019-03-25T10:48:41.915Z,64.80
2019-03-25T10:51:12.926Z,62.70
2019-03-25T10:53:41.426Z,66.30
2019-03-25T10:56:10.294Z,66.40
2019-03-25T10:58:39.186Z,64.10
2019-03-25T11:01:09.588Z,65.20
2019-03-25T11:03:38.531Z,63.10
2019-03-25T11:06:07.460Z,61.80
2019-03-25T11:08:36.357Z,62.60
2019-03-25T11:11:06.391Z,62.20
2019-03-25T11:13:35.466Z,63.30
2019-03-25T11:16:05.416Z,62.30
2019-03-25T11:18:34.268Z,62.10
2019-03-25T11:21:05.450Z,62.40
2019-03-25T11:23:34.750Z,58.60
2019-03-25T11:26:09.479Z,60.00
2019-03-25T11:28:38.334Z,60.20
2019-03-25T11:31:07.271Z,59.20
2019-03-25T11:33:36.104Z,59.30
2019-03-25T11:36:05.309Z,59.30
2019-03-25T11:38:34.263Z,59.20
2019-03-25T11:41:03.207Z,61.10
2019-03-25T11:43:32.083Z,58.40
2019-03-25T11:46:00.972Z,58.40
2019-03-25T11:48:29.908Z,58.20
2019-03-25T11:50:58.842Z,58.00
2019-03-25T11:53:27.734Z,58.80
2019-03-25T11:55:59.016Z,58.40
2019-03-25T11:58:27.986Z,57.30
2019-03-25T12:01:01.359Z,56.40
2019-03-25T12:03:33.677Z,56.70
2019-03-25T12:06:02.285Z,58.60
2019-03-25T12:08:32.756Z,59.20
2019-03-25T12:11:01.653Z,59.00
2019-03-25T12:13:30.558Z,57.50
2019-03-25T12:15:59.437Z,58.10
2019-03-25T12:18:31.087Z,58.20
2019-03-25T12:21:00.075Z,57.90
2019-03-25T12:23:28.967Z,59.00
2019-03-25T12:25:57.857Z,58.10
2019-03-25T12:28:26.785Z,57.30
2019-03-25T12:30:55.687Z,57.20
2019-03-25T12:33:24.556Z,58.50
2019-03-25T12:35:55.465Z,58.60
2019-03-25T12:38:24.044Z,57.90
2019-03-25T12:40:53.502Z,57.80
2019-03-25T12:43:22.407Z,58.90
2019-03-25T12:45:51.300Z,58.70
2019-03-25T12:48:20.211Z,59.00
2019-03-25T12:50:50.318Z,59.60
2019-03-25T12:53:19.276Z,59.30
2019-03-25T12:55:48.198Z,59.50
2019-03-25T12:58:17.078Z,60.30
2019-03-25T13:00:45.942Z,62.00
2019-03-25T13:03:15.350Z,61.30
2019-03-25T13:05:44.262Z,62.50
2019-03-25T13:08:17.231Z,64.00
2019-03-25T13:10:47.612Z,64.50
2019-03-25T13:13:16.490Z,62.80
2019-03-25T13:15:45.403Z,63.10
2019-03-25T13:18:14.307Z,64.00
2019-03-25T13:20:46.244Z,63.40
2019-03-25T13:23:15.111Z,64.60
2019-03-25T13:25:44.067Z,65.00
2019-03-25T13:28:12.973Z,64.10
2019-03-25T13:30:41.860Z,64.30
2019-03-25T13:33:10.770Z,65.50
2019-03-25T13:35:39.666Z,66.50
2019-03-25T13:38:08.553Z,68.00
2019-03-25T13:40:37.467Z,69.10
2019-03-25T13:43:06.310Z,70.70
2019-03-25T13:45:35.198Z,69.70
2019-03-25T13:48:04.159Z,68.40
2019-03-25T13:50:33.016Z,66.00
2019-03-25T13:53:01.877Z,64.60
2019-03-25T13:55:30.793Z,64.50
2019-03-25T13:57:59.661Z,65.90
2019-03-25T14:00:36.703Z,67.00
2019-03-25T14:03:05.540Z,65.80
2019-03-25T14:05:36.031Z,66.70
2019-03-25T14:08:04.936Z,65.70
2019-03-25T14:10:33.794Z,64.50
2019-03-25T14:13:02.624Z,64.90
2019-03-25T14:15:31.566Z,65.80
2019-03-25T14:18:00.487Z,65.80
2019-03-25T14:20:30.585Z,64.40
2019-03-25T14:22:59.526Z,63.80
2019-03-25T14:25:28.419Z,63.50
2019-03-25T14:27:59.147Z,63.40
2019-03-25T14:30:27.850Z,63.00
2019-03-25T14:32:56.727Z,63.10
2019-03-25T14:35:35.998Z,62.90
2019-03-25T14:38:04.923Z,62.60
2019-03-25T14:40:33.802Z,63.20
2019-03-25T14:43:02.682Z,64.10
2019-03-25T14:45:31.596Z,64.00
2019-03-25T14:48:03.475Z,64.30
2019-03-25T14:50:32.308Z,64.00
2019-03-25T14:53:01.171Z,63.50
2019-03-25T14:55:31.585Z,63.90
2019-03-25T14:58:00.485Z,64.70
2019-03-25T15:00:31.338Z,63.70
2019-03-25T15:02:59.934Z,61.50
2019-03-25T15:05:30.270Z,63.90
2019-03-25T15:08:03.534Z,63.00
2019-03-25T15:10:32.443Z,61.80
2019-03-25T15:13:01.282Z,63.90
2019-03-25T15:15:39.144Z,63.80
2019-03-25T15:18:15.506Z,64.70
2019-03-25T15:20:38.539Z,64.70
2019-03-25T15:23:07.435Z,64.30
2019-03-25T15:25:36.301Z,65.00
2019-03-25T15:28:07.777Z,63.80
2019-03-25T15:30:39.435Z,62.60
2019-03-25T15:33:14.214Z,64.20
2019-03-25T15:35:43.125Z,63.70
2019-03-25T15:38:11.999Z,63.70
2019-03-25T15:40:40.828Z,63.80
2019-03-25T15:43:09.744Z,64.40
2019-03-25T15:45:38.686Z,64.90
2019-03-25T15:48:07.568Z,64.30
2019-03-25T15:50:36.447Z,64.20
2019-03-25T15:53:07.158Z,65.40
2019-03-25T15:55:36.063Z,64.40
2019-03-25T15:58:06.182Z,64.50
2019-03-25T16:00:46.934Z,64.80
2019-03-25T16:03:07.239Z,64.20
2019-03-25T16:05:36.127Z,64.70
2019-03-25T16:08:07.029Z,65.20
2019-03-25T16:10:35.641Z,65.70
2019-03-25T16:13:04.557Z,65.00
2019-03-25T16:15:43.695Z,65.60
2019-03-25T16:18:32.951Z,66.80
2019-03-25T16:21:01.989Z,66.10
2019-03-25T16:23:30.931Z,66.40
2019-03-25T16:26:02.153Z,65.70
2019-03-25T16:28:33.942Z,66.00
2019-03-25T16:31:02.881Z,65.50
2019-03-25T16:33:33.387Z,65.50
2019-03-25T16:36:06.504Z,66.10
2019-03-25T16:38:35.544Z,66.90
2019-03-25T16:41:04.491Z,66.70
2019-03-25T16:43:36.672Z,67.40
2019-03-25T16:46:05.600Z,68.10
2019-03-25T16:48:34.619Z,68.00
2019-03-25T16:51:05.142Z,68.80
2019-03-25T16:53:34.281Z,69.10
2019-03-25T16:56:05.861Z,68.80
2019-03-25T16:58:34.634Z,68.80
2019-03-25T17:01:09.842Z,68.30
2019-03-25T17:04:06.447Z,68.90
2019-03-25T17:06:37.362Z,68.80
2019-03-25T17:09:07.344Z,68.00
2019-03-25T17:11:36.302Z,67.00
2019-03-25T17:14:13.809Z,67.10
2019-03-25T17:16:44.496Z,67.60
2019-03-25T17:19:16.432Z,68.40
2019-03-25T17:21:45.462Z,68.10
2019-03-25T17:24:14.411Z,68.30
2019-03-25T17:26:43.329Z,68.80
2019-03-25T17:29:12.348Z,67.90
2019-03-25T17:31:44.370Z,68.30
2019-03-25T17:34:24.241Z,68.70
2019-03-25T17:37:02.506Z,69.00
2019-03-25T17:39:31.390Z,69.70
2019-03-25T17:42:00.359Z,69.30
2019-03-25T17:44:31.306Z,69.80
2019-03-25T17:47:00.592Z,70.30
2019-03-25T17:49:38.624Z,69.60
2019-03-25T17:52:14.774Z,70.40
2019-03-25T17:54:49.088Z,70.70
2019-03-25T18:00:50.232Z,71.10
2019-03-25T18:03:29.669Z,71.40
2019-03-25T18:06:02.812Z,71.80
2019-03-25T18:08:38.464Z,72.20
2019-03-25T18:11:25.510Z,72.30
2019-03-25T18:20:51.890Z,73.00
2019-03-25T18:23:22.696Z,73.80
2019-03-25T18:25:51.616Z,74.60
2019-03-25T18:28:23.589Z,74.80
2019-03-25T18:30:52.624Z,75.80
2019-03-25T18:33:21.665Z,75.90
2019-03-25T18:35:50.613Z,76.20
2019-03-25T18:38:21.268Z,76.10
2019-03-25T18:40:50.271Z,75.80
2019-03-25T18:43:21.068Z,76.10
2019-03-25T18:45:50.185Z,75.70
2019-03-25T18:48:19.298Z,76.60
2019-03-25T18:50:50.826Z,76.90
2019-03-25T18:53:21.507Z,77.20
2019-03-25T18:55:50.555Z,77.60
2019-03-25T18:58:19.557Z,77.70
2019-03-25T19:00:48.624Z,77.40
2019-03-25T19:03:18.563Z,77.40
2019-03-25T19:06:09.150Z,77.40
2019-03-25T19:08:31.319Z,77.30
2019-03-25T19:11:01.882Z,77.50
2019-03-25T19:13:32.525Z,77.20
2019-03-25T19:16:04.683Z,77.10
2019-03-25T19:18:34.045Z,76.80
2019-03-25T19:21:06.343Z,78.30
2019-03-25T19:23:38.842Z,78.40
2019-03-25T19:26:10.323Z,79.30
2019-03-25T19:28:55.525Z,80.10
2019-03-25T19:31:21.580Z,81.20
2019-03-25T19:33:56.781Z,81.90
2019-03-25T19:36:26.070Z,82.20
2019-03-25T19:38:58.038Z,82.20
2019-03-25T19:41:33.046Z,82.40
2019-03-25T19:44:02.301Z,82.50
2019-03-25T19:46:34.405Z,82.50
2019-03-25T19:49:06.694Z,82.20
2019-03-25T19:54:29.577Z,84.10
2019-03-25T19:56:58.735Z,84.40
2019-03-25T20:08:23.345Z,85.00
2019-03-25T20:10:55.024Z,85.80
2019-03-25T20:13:24.381Z,86.20
2019-03-25T20:16:00.737Z,86.00
2019-03-25T20:18:31.603Z,86.40
2019-03-25T20:21:01.643Z,85.50
2019-03-25T20:23:33.644Z,86.10
2019-03-25T20:26:04.378Z,85.30
2019-03-25T20:28:33.443Z,85.10
2019-03-25T20:31:09.323Z,85.00
2019-03-25T20:33:44.940Z,84.70
2019-03-25T20:36:17.116Z,83.90
2019-03-25T20:38:49.518Z,83.80
2019-03-25T20:41:20.146Z,84.30
2019-03-25T20:43:59.170Z,84.90
2019-03-25T20:46:35.893Z,85.80
2019-03-25T20:49:12.165Z,85.90
2019-03-25T20:51:41.420Z,86.20
2019-03-25T20:54:13.686Z,86.70
2019-03-25T20:56:49.139Z,86.40
2019-03-25T20:59:42.068Z,86.00
2019-03-25T21:02:15.904Z,85.50
2019-03-25T21:04:44.179Z,85.10
2019-03-25T21:07:14.971Z,85.00
2019-03-25T21:09:47.837Z,85.00
2019-03-25T21:12:33.241Z,85.80
2019-03-25T21:15:14.286Z,85.90
2019-03-25T21:17:45.143Z,86.40
2019-03-25T21:20:32.101Z,86.00
2019-03-25T21:23:29.931Z,86.10
2019-03-25T21:29:07.896Z,85.70
2019-03-25T21:31:39.102Z,85.50
2019-03-25T21:34:08.139Z,85.80
2019-03-25T21:36:39.074Z,85.80
2019-03-25T21:39:14.005Z,86.20
2019-03-25T21:41:49.209Z,85.80
2019-03-25T21:44:15.810Z,85.60
2019-03-25T21:46:45.506Z,85.40
2019-03-25T21:49:14.717Z,85.30
2019-03-25T22:01:14.463Z,85.30
2019-03-25T22:06:40.290Z,82.20
2019-03-25T22:12:20.593Z,81.40
2019-03-25T22:14:59.170Z,79.60
2019-03-25T22:17:38.826Z,80.50
2019-03-25T22:20:44.191Z,80.30
2019-03-25T22:23:08.124Z,80.80
2019-03-25T22:25:43.484Z,80.90
2019-03-25T22:31:12.090Z,81.80
2019-03-25T22:33:41.524Z,82.30
2019-03-25T22:40:00.339Z,83.40
2019-03-25T22:54:45.831Z,83.60
2019-03-25T22:57:23.412Z,82.90
2019-03-25T22:59:54.481Z,82.90
2019-03-25T23:02:39.653Z,82.80
2019-03-25T23:08:51.456Z,82.30
2019-03-25T23:11:24.968Z,82.00
2019-03-25T23:14:21.964Z,82.30
2019-03-25T23:22:50.708Z,81.20
2019-03-25T23:25:53.350Z,80.70
2019-03-25T23:33:52.960Z,81.70
2019-03-25T23:36:26.018Z,82.00
2019-03-25T23:39:06.915Z,82.30
2019-03-25T23:41:35.867Z,83.10
2019-03-25T23:44:06.022Z,82.90
2019-03-25T23:46:36.475Z,83.50
2019-03-25T23:49:07.302Z,83.60
2019-03-25T23:51:36.152Z,83.70
2019-03-25T23:54:11.990Z,84.30
2019-03-25T23:56:43.295Z,85.00
2019-03-25T23:59:14.736Z,84.40
